sensor_id;sensor_type;location;lat;lon;timestamp;P1;durP1;ratioP1;P2;durP2;ratioP2
38111;SDS011;64011;56.312;44.048;2023-08-06T00:00:17;22.98;;;10.35;;
38111;SDS011;64011;56.312;44.048;2023-08-06T00:02:20;21.80;;;9.77;;
38111;SDS011;64011;56.312;44.048;2023-08-06T00:04:22;25.08;;;9.77;;
38111;SDS011;64011;56.312;44.048;2023-08-06T00:06:24;23.52;;;9.55;;
38111;SDS011;64011;56.312;44.048;2023-08-06T00:08:25;21.88;;;10.43;;
38111;SDS011;64011;56.312;44.048;2023-08-06T00:10:26;23.08;;;10.20;;
38111;SDS011;64011;56.312;44.048;2023-08-06T00:12:27;21.13;;;10.43;;
38111;SDS011;64011;56.312;44.048;2023-08-06T00:14:30;20.63;;;10.48;;
38111;SDS011;64011;56.312;44.048;2023-08-06T00:16:31;23.42;;;10.52;;
38111;SDS011;64011;56.312;44.048;2023-08-06T00:18:32;26.15;;;10.13;;
38111;SDS011;64011;56.312;44.048;2023-08-06T00:20:34;23.10;;;10.55;;
38111;SDS011;64011;56.312;44.048;2023-08-06T00:22:35;21.98;;;9.70;;
38111;SDS011;64011;56.312;44.048;2023-08-06T00:24:37;19.85;;;9.90;;
38111;SDS011;64011;56.312;44.048;2023-08-06T00:26:38;21.88;;;9.93;;
38111;SDS011;64011;56.312;44.048;2023-08-06T00:28:38;23.30;;;10.25;;
38111;SDS011;64011;56.312;44.048;2023-08-06T00:30:41;26.30;;;10.43;;
38111;SDS011;64011;56.312;44.048;2023-08-06T00:32:41;22.80;;;10.68;;
38111;SDS011;64011;56.312;44.048;2023-08-06T00:34:42;23.92;;;10.05;;
38111;SDS011;64011;56.312;44.048;2023-08-06T00:36:43;24.70;;;10.45;;
38111;SDS011;64011;56.312;44.048;2023-08-06T00:38:44;24.80;;;10.75;;
38111;SDS011;64011;56.312;44.048;2023-08-06T00:40:45;19.00;;;9.13;;
38111;SDS011;64011;56.312;44.048;2023-08-06T00:42:45;21.52;;;9.75;;
38111;SDS011;64011;56.312;44.048;2023-08-06T00:44:46;21.13;;;9.48;;
38111;SDS011;64011;56.312;44.048;2023-08-06T00:46:48;20.95;;;10.32;;
38111;SDS011;64011;56.312;44.048;2023-08-06T00:48:49;21.23;;;9.77;;
38111;SDS011;64011;56.312;44.048;2023-08-06T00:51:06;23.13;;;10.57;;
38111;SDS011;64011;56.312;44.048;2023-08-06T00:53:07;24.35;;;10.05;;
38111;SDS011;64011;56.312;44.048;2023-08-06T00:55:08;23.40;;;10.45;;
38111;SDS011;64011;56.312;44.048;2023-08-06T00:57:09;22.25;;;10.27;;
38111;SDS011;64011;56.312;44.048;2023-08-06T00:59:10;22.67;;;10.40;;
38111;SDS011;64011;56.312;44.048;2023-08-06T01:01:11;21.00;;;10.10;;
38111;SDS011;64011;56.312;44.048;2023-08-06T01:03:13;22.70;;;10.18;;
38111;SDS011;64011;56.312;44.048;2023-08-06T01:05:14;20.80;;;9.65;;
38111;SDS011;64011;56.312;44.048;2023-08-06T01:07:17;24.23;;;9.73;;
38111;SDS011;64011;56.312;44.048;2023-08-06T01:09:27;22.85;;;9.40;;
38111;SDS011;64011;56.312;44.048;2023-08-06T01:11:38;21.00;;;9.55;;
38111;SDS011;64011;56.312;44.048;2023-08-06T01:13:58;24.30;;;9.80;;
38111;SDS011;64011;56.312;44.048;2023-08-06T01:16:02;21.13;;;9.57;;
38111;SDS011;64011;56.312;44.048;2023-08-06T01:18:04;19.95;;;9.00;;
38111;SDS011;64011;56.312;44.048;2023-08-06T01:20:08;25.42;;;9.52;;
38111;SDS011;64011;56.312;44.048;2023-08-06T01:22:12;20.75;;;9.07;;
38111;SDS011;64011;56.312;44.048;2023-08-06T01:24:12;19.45;;;9.82;;
38111;SDS011;64011;56.312;44.048;2023-08-06T01:26:14;19.70;;;9.18;;
38111;SDS011;64011;56.312;44.048;2023-08-06T01:28:18;23.42;;;9.63;;
38111;SDS011;64011;56.312;44.048;2023-08-06T01:30:25;19.95;;;8.77;;
38111;SDS011;64011;56.312;44.048;2023-08-06T01:32:27;20.55;;;9.57;;
38111;SDS011;64011;56.312;44.048;2023-08-06T01:34:31;19.40;;;8.93;;
38111;SDS011;64011;56.312;44.048;2023-08-06T01:36:32;21.45;;;9.13;;
38111;SDS011;64011;56.312;44.048;2023-08-06T01:38:35;18.08;;;8.93;;
38111;SDS011;64011;56.312;44.048;2023-08-06T01:40:36;18.95;;;8.55;;
38111;SDS011;64011;56.312;44.048;2023-08-06T01:42:37;22.23;;;8.57;;
38111;SDS011;64011;56.312;44.048;2023-08-06T01:44:37;17.13;;;8.25;;
38111;SDS011;64011;56.312;44.048;2023-08-06T01:46:38;21.65;;;9.05;;
38111;SDS011;64011;56.312;44.048;2023-08-06T01:48:39;18.65;;;9.20;;
38111;SDS011;64011;56.312;44.048;2023-08-06T01:50:40;21.80;;;8.50;;
38111;SDS011;64011;56.312;44.048;2023-08-06T01:52:41;19.35;;;8.57;;
38111;SDS011;64011;56.312;44.048;2023-08-06T01:54:43;20.52;;;9.20;;
38111;SDS011;64011;56.312;44.048;2023-08-06T01:56:44;17.33;;;8.57;;
38111;SDS011;64011;56.312;44.048;2023-08-06T01:58:45;19.83;;;8.52;;
38111;SDS011;64011;56.312;44.048;2023-08-06T02:00:46;22.35;;;8.70;;
38111;SDS011;64011;56.312;44.048;2023-08-06T02:02:46;19.10;;;8.82;;
38111;SDS011;64011;56.312;44.048;2023-08-06T02:04:47;17.88;;;8.68;;
38111;SDS011;64011;56.312;44.048;2023-08-06T02:06:48;18.00;;;8.43;;
38111;SDS011;64011;56.312;44.048;2023-08-06T02:08:49;21.67;;;9.57;;
38111;SDS011;64011;56.312;44.048;2023-08-06T02:10:51;19.45;;;8.80;;
38111;SDS011;64011;56.312;44.048;2023-08-06T02:12:52;21.27;;;9.57;;
38111;SDS011;64011;56.312;44.048;2023-08-06T02:14:53;19.40;;;9.70;;
38111;SDS011;64011;56.312;44.048;2023-08-06T02:16:54;19.98;;;9.80;;
38111;SDS011;64011;56.312;44.048;2023-08-06T02:18:54;21.48;;;9.20;;
38111;SDS011;64011;56.312;44.048;2023-08-06T02:21:04;21.27;;;10.80;;
38111;SDS011;64011;56.312;44.048;2023-08-06T02:23:05;22.45;;;11.57;;
38111;SDS011;64011;56.312;44.048;2023-08-06T02:25:06;22.77;;;11.43;;
38111;SDS011;64011;56.312;44.048;2023-08-06T02:27:09;18.88;;;10.23;;
38111;SDS011;64011;56.312;44.048;2023-08-06T02:29:09;19.30;;;10.05;;
38111;SDS011;64011;56.312;44.048;2023-08-06T02:31:10;18.83;;;8.68;;
38111;SDS011;64011;56.312;44.048;2023-08-06T02:33:11;24.00;;;9.80;;
38111;SDS011;64011;56.312;44.048;2023-08-06T02:35:12;20.48;;;10.45;;
38111;SDS011;64011;56.312;44.048;2023-08-06T02:37:12;19.15;;;9.68;;
38111;SDS011;64011;56.312;44.048;2023-08-06T02:39:13;19.90;;;9.32;;
38111;SDS011;64011;56.312;44.048;2023-08-06T02:41:14;20.10;;;9.70;;
38111;SDS011;64011;56.312;44.048;2023-08-06T02:43:16;25.25;;;14.10;;
38111;SDS011;64011;56.312;44.048;2023-08-06T02:45:17;24.58;;;10.23;;
38111;SDS011;64011;56.312;44.048;2023-08-06T02:47:18;19.38;;;9.85;;
38111;SDS011;64011;56.312;44.048;2023-08-06T02:49:18;20.90;;;10.38;;
38111;SDS011;64011;56.312;44.048;2023-08-06T02:51:19;23.08;;;8.93;;
38111;SDS011;64011;56.312;44.048;2023-08-06T02:53:20;22.58;;;8.63;;
38111;SDS011;64011;56.312;44.048;2023-08-06T02:55:21;20.45;;;8.48;;
38111;SDS011;64011;56.312;44.048;2023-08-06T02:57:23;18.40;;;9.05;;
38111;SDS011;64011;56.312;44.048;2023-08-06T02:59:25;20.85;;;8.60;;
38111;SDS011;64011;56.312;44.048;2023-08-06T03:01:26;19.25;;;8.93;;
38111;SDS011;64011;56.312;44.048;2023-08-06T03:03:26;19.77;;;9.25;;
38111;SDS011;64011;56.312;44.048;2023-08-06T03:05:28;20.95;;;9.82;;
38111;SDS011;64011;56.312;44.048;2023-08-06T03:07:29;19.50;;;9.02;;
38111;SDS011;64011;56.312;44.048;2023-08-06T03:09:30;19.08;;;8.95;;
38111;SDS011;64011;56.312;44.048;2023-08-06T03:11:31;17.40;;;8.35;;
38111;SDS011;64011;56.312;44.048;2023-08-06T03:13:31;20.35;;;8.75;;
38111;SDS011;64011;56.312;44.048;2023-08-06T03:15:33;21.63;;;9.60;;
38111;SDS011;64011;56.312;44.048;2023-08-06T03:17:34;18.85;;;9.00;;
38111;SDS011;64011;56.312;44.048;2023-08-06T03:19:35;18.88;;;8.93;;
38111;SDS011;64011;56.312;44.048;2023-08-06T03:21:36;18.98;;;8.63;;
38111;SDS011;64011;56.312;44.048;2023-08-06T03:23:36;23.10;;;9.75;;
38111;SDS011;64011;56.312;44.048;2023-08-06T03:25:37;18.60;;;9.73;;
38111;SDS011;64011;56.312;44.048;2023-08-06T03:27:38;18.48;;;9.07;;
38111;SDS011;64011;56.312;44.048;2023-08-06T03:29:39;18.25;;;9.38;;
38111;SDS011;64011;56.312;44.048;2023-08-06T03:31:41;20.52;;;8.50;;
38111;SDS011;64011;56.312;44.048;2023-08-06T03:33:42;18.83;;;10.02;;
38111;SDS011;64011;56.312;44.048;2023-08-06T03:35:42;20.65;;;10.02;;
38111;SDS011;64011;56.312;44.048;2023-08-06T03:37:43;18.23;;;9.70;;
38111;SDS011;64011;56.312;44.048;2023-08-06T03:39:44;21.52;;;10.50;;
38111;SDS011;64011;56.312;44.048;2023-08-06T03:41:45;20.63;;;10.13;;
38111;SDS011;64011;56.312;44.048;2023-08-06T03:43:46;21.73;;;11.55;;
38111;SDS011;64011;56.312;44.048;2023-08-06T03:45:46;23.88;;;12.40;;
38111;SDS011;64011;56.312;44.048;2023-08-06T03:47:48;22.17;;;11.63;;
38111;SDS011;64011;56.312;44.048;2023-08-06T03:49:49;23.55;;;11.43;;
38111;SDS011;64011;56.312;44.048;2023-08-06T03:51:50;21.02;;;10.32;;
38111;SDS011;64011;56.312;44.048;2023-08-06T03:53:51;19.42;;;10.65;;
38111;SDS011;64011;56.312;44.048;2023-08-06T03:55:52;19.55;;;8.70;;
38111;SDS011;64011;56.312;44.048;2023-08-06T03:57:52;17.50;;;7.78;;
38111;SDS011;64011;56.312;44.048;2023-08-06T03:59:53;17.77;;;7.72;;
38111;SDS011;64011;56.312;44.048;2023-08-06T04:01:54;17.88;;;8.57;;
38111;SDS011;64011;56.312;44.048;2023-08-06T04:03:56;17.27;;;7.53;;
38111;SDS011;64011;56.312;44.048;2023-08-06T04:05:57;16.77;;;7.20;;
38111;SDS011;64011;56.312;44.048;2023-08-06T04:07:58;15.32;;;6.55;;
38111;SDS011;64011;56.312;44.048;2023-08-06T04:09:59;16.17;;;7.20;;
38111;SDS011;64011;56.312;44.048;2023-08-06T04:12:00;12.63;;;5.13;;
38111;SDS011;64011;56.312;44.048;2023-08-06T04:14:01;16.65;;;6.45;;
38111;SDS011;64011;56.312;44.048;2023-08-06T04:16:02;15.18;;;5.40;;
38111;SDS011;64011;56.312;44.048;2023-08-06T04:18:03;15.25;;;6.60;;
38111;SDS011;64011;56.312;44.048;2023-08-06T04:20:06;16.80;;;6.60;;
38111;SDS011;64011;56.312;44.048;2023-08-06T04:22:07;13.02;;;5.65;;
38111;SDS011;64011;56.312;44.048;2023-08-06T04:24:08;13.02;;;5.78;;
38111;SDS011;64011;56.312;44.048;2023-08-06T04:26:09;15.52;;;5.03;;
38111;SDS011;64011;56.312;44.048;2023-08-06T04:28:10;13.15;;;5.35;;
38111;SDS011;64011;56.312;44.048;2023-08-06T04:30:11;15.07;;;5.80;;
38111;SDS011;64011;56.312;44.048;2023-08-06T04:32:12;13.68;;;4.85;;
38111;SDS011;64011;56.312;44.048;2023-08-06T04:34:13;12.30;;;5.18;;
38111;SDS011;64011;56.312;44.048;2023-08-06T04:36:15;10.88;;;4.55;;
38111;SDS011;64011;56.312;44.048;2023-08-06T04:38:16;8.77;;;3.97;;
38111;SDS011;64011;56.312;44.048;2023-08-06T04:40:16;11.65;;;4.18;;
38111;SDS011;64011;56.312;44.048;2023-08-06T04:42:17;11.15;;;4.28;;
38111;SDS011;64011;56.312;44.048;2023-08-06T04:44:18;9.55;;;4.43;;
38111;SDS011;64011;56.312;44.048;2023-08-06T04:46:19;10.82;;;4.40;;
38111;SDS011;64011;56.312;44.048;2023-08-06T04:48:20;10.90;;;4.07;;
38111;SDS011;64011;56.312;44.048;2023-08-06T04:50:20;9.38;;;4.03;;
38111;SDS011;64011;56.312;44.048;2023-08-06T04:52:23;11.93;;;4.30;;
38111;SDS011;64011;56.312;44.048;2023-08-06T04:54:23;12.63;;;5.13;;
38111;SDS011;64011;56.312;44.048;2023-08-06T04:56:24;13.77;;;5.40;;
38111;SDS011;64011;56.312;44.048;2023-08-06T04:58:25;13.90;;;5.57;;
38111;SDS011;64011;56.312;44.048;2023-08-06T05:00:26;15.68;;;5.80;;
38111;SDS011;64011;56.312;44.048;2023-08-06T05:02:26;12.43;;;4.97;;
38111;SDS011;64011;56.312;44.048;2023-08-06T05:04:27;15.48;;;5.85;;
38111;SDS011;64011;56.312;44.048;2023-08-06T05:06:28;12.77;;;4.85;;
38111;SDS011;64011;56.312;44.048;2023-08-06T05:08:30;10.70;;;4.32;;
38111;SDS011;64011;56.312;44.048;2023-08-06T05:10:31;9.77;;;4.13;;
38111;SDS011;64011;56.312;44.048;2023-08-06T05:12:32;12.70;;;4.55;;
38111;SDS011;64011;56.312;44.048;2023-08-06T05:14:33;12.95;;;4.82;;
38111;SDS011;64011;56.312;44.048;2023-08-06T05:16:34;13.88;;;4.65;;
38111;SDS011;64011;56.312;44.048;2023-08-06T05:18:36;13.77;;;5.35;;
38111;SDS011;64011;56.312;44.048;2023-08-06T05:20:37;10.98;;;5.03;;
38111;SDS011;64011;56.312;44.048;2023-08-06T05:22:41;14.20;;;5.03;;
38111;SDS011;64011;56.312;44.048;2023-08-06T05:24:46;11.52;;;5.10;;
38111;SDS011;64011;56.312;44.048;2023-08-06T05:26:48;12.23;;;4.47;;
38111;SDS011;64011;56.312;44.048;2023-08-06T05:29:00;9.32;;;4.15;;
38111;SDS011;64011;56.312;44.048;2023-08-06T05:31:04;10.70;;;4.80;;
38111;SDS011;64011;56.312;44.048;2023-08-06T05:33:06;19.92;;;12.00;;
38111;SDS011;64011;56.312;44.048;2023-08-06T05:35:07;10.85;;;4.80;;
38111;SDS011;64011;56.312;44.048;2023-08-06T05:37:10;10.68;;;4.53;;
38111;SDS011;64011;56.312;44.048;2023-08-06T05:39:17;9.90;;;3.90;;
38111;SDS011;64011;56.312;44.048;2023-08-06T05:41:20;10.23;;;4.05;;
38111;SDS011;64011;56.312;44.048;2023-08-06T05:43:21;12.65;;;4.05;;
38111;SDS011;64011;56.312;44.048;2023-08-06T05:45:26;10.80;;;3.78;;
38111;SDS011;64011;56.312;44.048;2023-08-06T05:47:27;9.32;;;3.72;;
38111;SDS011;64011;56.312;44.048;2023-08-06T05:49:29;9.52;;;3.80;;
38111;SDS011;64011;56.312;44.048;2023-08-06T05:51:30;11.02;;;3.83;;
38111;SDS011;64011;56.312;44.048;2023-08-06T05:53:31;8.90;;;3.30;;
38111;SDS011;64011;56.312;44.048;2023-08-06T05:55:32;8.25;;;3.80;;
38111;SDS011;64011;56.312;44.048;2023-08-06T05:57:35;8.77;;;3.50;;
38111;SDS011;64011;56.312;44.048;2023-08-06T05:59:36;8.38;;;3.30;;
38111;SDS011;64011;56.312;44.048;2023-08-06T06:01:38;11.02;;;3.75;;
38111;SDS011;64011;56.312;44.048;2023-08-06T06:03:40;7.15;;;3.47;;
38111;SDS011;64011;56.312;44.048;2023-08-06T06:05:41;9.75;;;3.40;;
38111;SDS011;64011;56.312;44.048;2023-08-06T06:07:42;10.57;;;3.53;;
38111;SDS011;64011;56.312;44.048;2023-08-06T06:09:43;8.55;;;3.10;;
38111;SDS011;64011;56.312;44.048;2023-08-06T06:11:44;10.75;;;3.40;;
38111;SDS011;64011;56.312;44.048;2023-08-06T06:13:46;9.88;;;3.55;;
38111;SDS011;64011;56.312;44.048;2023-08-06T06:15:47;9.40;;;2.33;;
38111;SDS011;64011;56.312;44.048;2023-08-06T06:17:48;7.03;;;2.53;;
38111;SDS011;64011;56.312;44.048;2023-08-06T06:19:48;7.80;;;2.65;;
38111;SDS011;64011;56.312;44.048;2023-08-06T06:21:49;7.95;;;2.60;;
38111;SDS011;64011;56.312;44.048;2023-08-06T06:23:51;8.15;;;2.72;;
38111;SDS011;64011;56.312;44.048;2023-08-06T06:25:57;8.02;;;2.97;;
38111;SDS011;64011;56.312;44.048;2023-08-06T06:27:58;8.13;;;3.25;;
38111;SDS011;64011;56.312;44.048;2023-08-06T06:30:00;12.00;;;3.50;;
38111;SDS011;64011;56.312;44.048;2023-08-06T06:32:01;9.63;;;3.42;;
38111;SDS011;64011;56.312;44.048;2023-08-06T06:34:05;6.95;;;2.72;;
38111;SDS011;64011;56.312;44.048;2023-08-06T06:36:06;6.20;;;2.92;;
38111;SDS011;64011;56.312;44.048;2023-08-06T06:38:07;7.15;;;2.67;;
38111;SDS011;64011;56.312;44.048;2023-08-06T06:40:09;6.43;;;2.63;;
38111;SDS011;64011;56.312;44.048;2023-08-06T06:42:11;8.88;;;3.20;;
38111;SDS011;64011;56.312;44.048;2023-08-06T06:44:12;10.52;;;3.38;;
38111;SDS011;64011;56.312;44.048;2023-08-06T06:46:15;9.60;;;3.45;;
38111;SDS011;64011;56.312;44.048;2023-08-06T06:48:16;9.80;;;3.55;;
38111;SDS011;64011;56.312;44.048;2023-08-06T06:50:18;10.00;;;3.10;;
38111;SDS011;64011;56.312;44.048;2023-08-06T06:52:19;7.43;;;2.90;;
38111;SDS011;64011;56.312;44.048;2023-08-06T06:54:20;10.43;;;3.17;;
38111;SDS011;64011;56.312;44.048;2023-08-06T06:56:21;10.63;;;3.22;;
38111;SDS011;64011;56.312;44.048;2023-08-06T06:58:22;6.88;;;3.00;;
38111;SDS011;64011;56.312;44.048;2023-08-06T07:00:23;9.07;;;2.92;;
38111;SDS011;64011;56.312;44.048;2023-08-06T07:02:27;8.95;;;3.25;;
38111;SDS011;64011;56.312;44.048;2023-08-06T07:04:27;10.07;;;3.08;;
38111;SDS011;64011;56.312;44.048;2023-08-06T07:06:28;7.35;;;2.55;;
38111;SDS011;64011;56.312;44.048;2023-08-06T07:08:32;8.45;;;3.00;;
38111;SDS011;64011;56.312;44.048;2023-08-06T07:10:33;7.65;;;2.90;;
38111;SDS011;64011;56.312;44.048;2023-08-06T07:12:34;8.77;;;3.10;;
38111;SDS011;64011;56.312;44.048;2023-08-06T07:14:35;6.75;;;2.78;;
38111;SDS011;64011;56.312;44.048;2023-08-06T07:16:37;9.40;;;3.10;;
38111;SDS011;64011;56.312;44.048;2023-08-06T07:18:39;5.43;;;2.72;;
38111;SDS011;64011;56.312;44.048;2023-08-06T07:20:40;7.28;;;2.80;;
38111;SDS011;64011;56.312;44.048;2023-08-06T07:22:42;10.50;;;2.70;;
38111;SDS011;64011;56.312;44.048;2023-08-06T07:24:43;8.25;;;3.22;;
38111;SDS011;64011;56.312;44.048;2023-08-06T07:26:44;10.80;;;3.47;;
38111;SDS011;64011;56.312;44.048;2023-08-06T07:28:45;7.88;;;2.67;;
38111;SDS011;64011;56.312;44.048;2023-08-06T07:30:46;7.05;;;2.75;;
38111;SDS011;64011;56.312;44.048;2023-08-06T07:32:47;12.05;;;2.50;;
38111;SDS011;64011;56.312;44.048;2023-08-06T07:34:50;4.43;;;2.40;;
38111;SDS011;64011;56.312;44.048;2023-08-06T07:36:51;7.35;;;2.30;;
38111;SDS011;64011;56.312;44.048;2023-08-06T07:38:52;5.45;;;2.42;;
38111;SDS011;64011;56.312;44.048;2023-08-06T07:40:53;6.32;;;2.20;;
38111;SDS011;64011;56.312;44.048;2023-08-06T07:42:54;7.10;;;2.20;;
38111;SDS011;64011;56.312;44.048;2023-08-06T07:44:56;9.88;;;2.45;;
38111;SDS011;64011;56.312;44.048;2023-08-06T07:46:58;4.40;;;1.90;;
38111;SDS011;64011;56.312;44.048;2023-08-06T07:48:59;7.20;;;2.08;;
38111;SDS011;64011;56.312;44.048;2023-08-06T07:51:02;8.32;;;2.40;;
38111;SDS011;64011;56.312;44.048;2023-08-06T07:53:03;6.10;;;1.90;;
38111;SDS011;64011;56.312;44.048;2023-08-06T07:55:04;6.53;;;2.13;;
38111;SDS011;64011;56.312;44.048;2023-08-06T07:57:05;5.18;;;2.15;;
38111;SDS011;64011;56.312;44.048;2023-08-06T07:59:07;8.20;;;2.20;;
38111;SDS011;64011;56.312;44.048;2023-08-06T08:01:09;5.93;;;1.90;;
38111;SDS011;64011;56.312;44.048;2023-08-06T08:03:10;5.80;;;2.03;;
38111;SDS011;64011;56.312;44.048;2023-08-06T08:05:11;6.82;;;2.22;;
38111;SDS011;64011;56.312;44.048;2023-08-06T08:07:14;6.70;;;1.90;;
38111;SDS011;64011;56.312;44.048;2023-08-06T08:09:15;7.72;;;2.20;;
38111;SDS011;64011;56.312;44.048;2023-08-06T08:11:16;9.07;;;2.33;;
38111;SDS011;64011;56.312;44.048;2023-08-06T08:13:17;7.65;;;2.05;;
38111;SDS011;64011;56.312;44.048;2023-08-06T08:15:18;6.05;;;2.33;;
38111;SDS011;64011;56.312;44.048;2023-08-06T08:17:20;5.47;;;2.20;;
38111;SDS011;64011;56.312;44.048;2023-08-06T08:19:20;7.53;;;2.50;;
38111;SDS011;64011;56.312;44.048;2023-08-06T08:21:21;13.95;;;3.35;;
38111;SDS011;64011;56.312;44.048;2023-08-06T08:23:23;6.07;;;2.05;;
38111;SDS011;64011;56.312;44.048;2023-08-06T08:25:24;5.60;;;1.88;;
38111;SDS011;64011;56.312;44.048;2023-08-06T08:27:25;11.77;;;2.60;;
38111;SDS011;64011;56.312;44.048;2023-08-06T08:29:26;5.60;;;1.60;;
38111;SDS011;64011;56.312;44.048;2023-08-06T08:31:26;4.95;;;1.83;;
38111;SDS011;64011;56.312;44.048;2023-08-06T08:33:27;10.70;;;3.38;;
38111;SDS011;64011;56.312;44.048;2023-08-06T08:35:28;11.57;;;3.17;;
38111;SDS011;64011;56.312;44.048;2023-08-06T08:37:29;8.10;;;2.85;;
38111;SDS011;64011;56.312;44.048;2023-08-06T08:39:31;8.45;;;2.90;;
38111;SDS011;64011;56.312;44.048;2023-08-06T08:41:33;11.30;;;3.60;;
38111;SDS011;64011;56.312;44.048;2023-08-06T08:43:34;12.23;;;3.17;;
38111;SDS011;64011;56.312;44.048;2023-08-06T08:45:34;7.45;;;2.80;;
38111;SDS011;64011;56.312;44.048;2023-08-06T08:47:40;10.93;;;3.67;;
38111;SDS011;64011;56.312;44.048;2023-08-06T08:49:41;8.50;;;2.60;;
38111;SDS011;64011;56.312;44.048;2023-08-06T08:51:42;8.48;;;2.83;;
38111;SDS011;64011;56.312;44.048;2023-08-06T08:53:44;8.20;;;3.00;;
38111;SDS011;64011;56.312;44.048;2023-08-06T08:55:48;5.10;;;2.53;;
38111;SDS011;64011;56.312;44.048;2023-08-06T08:57:49;7.22;;;2.78;;
38111;SDS011;64011;56.312;44.048;2023-08-06T08:59:50;6.05;;;2.50;;
38111;SDS011;64011;56.312;44.048;2023-08-06T09:01:51;8.82;;;2.60;;
38111;SDS011;64011;56.312;44.048;2023-08-06T09:03:52;6.72;;;2.85;;
38111;SDS011;64011;56.312;44.048;2023-08-06T09:05:54;6.22;;;2.78;;
38111;SDS011;64011;56.312;44.048;2023-08-06T09:07:55;7.45;;;2.83;;
38111;SDS011;64011;56.312;44.048;2023-08-06T09:10:02;7.35;;;2.75;;
38111;SDS011;64011;56.312;44.048;2023-08-06T09:12:09;7.78;;;2.60;;
38111;SDS011;64011;56.312;44.048;2023-08-06T09:14:12;8.95;;;3.63;;
38111;SDS011;64011;56.312;44.048;2023-08-06T09:16:13;7.78;;;2.60;;
38111;SDS011;64011;56.312;44.048;2023-08-06T09:18:14;5.60;;;2.53;;
38111;SDS011;64011;56.312;44.048;2023-08-06T09:20:16;5.75;;;2.58;;
38111;SDS011;64011;56.312;44.048;2023-08-06T09:22:17;8.32;;;3.20;;
38111;SDS011;64011;56.312;44.048;2023-08-06T09:24:18;6.68;;;2.65;;
38111;SDS011;64011;56.312;44.048;2023-08-06T09:26:19;8.60;;;2.80;;
38111;SDS011;64011;56.312;44.048;2023-08-06T09:28:22;9.25;;;2.60;;
38111;SDS011;64011;56.312;44.048;2023-08-06T09:30:32;8.30;;;2.67;;
38111;SDS011;64011;56.312;44.048;2023-08-06T09:32:44;6.85;;;2.60;;
38111;SDS011;64011;56.312;44.048;2023-08-06T09:34:46;7.70;;;2.80;;
38111;SDS011;64011;56.312;44.048;2023-08-06T09:36:47;6.03;;;2.75;;
38111;SDS011;64011;56.312;44.048;2023-08-06T09:38:48;8.32;;;2.70;;
38111;SDS011;64011;56.312;44.048;2023-08-06T09:40:49;8.13;;;2.60;;
38111;SDS011;64011;56.312;44.048;2023-08-06T09:42:50;7.55;;;2.65;;
38111;SDS011;64011;56.312;44.048;2023-08-06T09:44:52;10.13;;;2.45;;
38111;SDS011;64011;56.312;44.048;2023-08-06T09:47:05;4.93;;;2.47;;
38111;SDS011;64011;56.312;44.048;2023-08-06T09:49:06;6.70;;;2.90;;
38111;SDS011;64011;56.312;44.048;2023-08-06T09:51:07;8.68;;;2.63;;
38111;SDS011;64011;56.312;44.048;2023-08-06T09:53:09;6.25;;;2.58;;
38111;SDS011;64011;56.312;44.048;2023-08-06T09:55:10;6.40;;;2.60;;
38111;SDS011;64011;56.312;44.048;2023-08-06T09:57:11;7.97;;;2.45;;
38111;SDS011;64011;56.312;44.048;2023-08-06T09:59:12;8.18;;;2.58;;
38111;SDS011;64011;56.312;44.048;2023-08-06T10:01:15;7.50;;;2.53;;
38111;SDS011;64011;56.312;44.048;2023-08-06T10:03:16;9.27;;;2.30;;
38111;SDS011;64011;56.312;44.048;2023-08-06T10:05:18;8.30;;;2.80;;
38111;SDS011;64011;56.312;44.048;2023-08-06T10:07:19;5.85;;;2.22;;
38111;SDS011;64011;56.312;44.048;2023-08-06T10:09:19;6.78;;;2.78;;
38111;SDS011;64011;56.312;44.048;2023-08-06T10:11:20;10.80;;;2.58;;
38111;SDS011;64011;56.312;44.048;2023-08-06T10:13:22;7.78;;;2.70;;
38111;SDS011;64011;56.312;44.048;2023-08-06T10:15:24;7.25;;;2.55;;
38111;SDS011;64011;56.312;44.048;2023-08-06T10:17:27;9.25;;;3.10;;
38111;SDS011;64011;56.312;44.048;2023-08-06T10:19:28;8.90;;;2.92;;
38111;SDS011;64011;56.312;44.048;2023-08-06T10:21:30;8.85;;;2.85;;
38111;SDS011;64011;56.312;44.048;2023-08-06T10:23:35;6.30;;;2.33;;
38111;SDS011;64011;56.312;44.048;2023-08-06T10:25:39;10.02;;;3.38;;
38111;SDS011;64011;56.312;44.048;2023-08-06T10:27:53;9.30;;;2.70;;
38111;SDS011;64011;56.312;44.048;2023-08-06T10:29:54;5.70;;;2.60;;
38111;SDS011;64011;56.312;44.048;2023-08-06T10:31:58;8.85;;;2.72;;
38111;SDS011;64011;56.312;44.048;2023-08-06T10:34:00;6.82;;;2.30;;
38111;SDS011;64011;56.312;44.048;2023-08-06T10:36:01;7.97;;;2.90;;
38111;SDS011;64011;56.312;44.048;2023-08-06T10:38:03;10.60;;;3.03;;
38111;SDS011;64011;56.312;44.048;2023-08-06T10:40:06;8.38;;;2.35;;
38111;SDS011;64011;56.312;44.048;2023-08-06T10:42:12;7.50;;;2.53;;
38111;SDS011;64011;56.312;44.048;2023-08-06T10:44:20;6.80;;;2.42;;
38111;SDS011;64011;56.312;44.048;2023-08-06T10:46:21;5.65;;;2.50;;
38111;SDS011;64011;56.312;44.048;2023-08-06T10:48:29;7.68;;;2.85;;
38111;SDS011;64011;56.312;44.048;2023-08-06T10:50:32;4.93;;;2.22;;
38111;SDS011;64011;56.312;44.048;2023-08-06T10:52:33;7.60;;;2.60;;
38111;SDS011;64011;56.312;44.048;2023-08-06T10:54:34;5.30;;;2.40;;
38111;SDS011;64011;56.312;44.048;2023-08-06T10:56:39;8.63;;;2.92;;
38111;SDS011;64011;56.312;44.048;2023-08-06T10:58:40;7.78;;;2.40;;
38111;SDS011;64011;56.312;44.048;2023-08-06T11:00:41;10.73;;;2.70;;
38111;SDS011;64011;56.312;44.048;2023-08-06T11:02:42;6.15;;;2.35;;
38111;SDS011;64011;56.312;44.048;2023-08-06T11:04:43;5.50;;;2.03;;
38111;SDS011;64011;56.312;44.048;2023-08-06T11:06:45;7.57;;;2.20;;
38111;SDS011;64011;56.312;44.048;2023-08-06T11:08:53;5.72;;;2.20;;
38111;SDS011;64011;56.312;44.048;2023-08-06T11:10:54;5.72;;;2.05;;
38111;SDS011;64011;56.312;44.048;2023-08-06T11:12:55;6.68;;;2.60;;
38111;SDS011;64011;56.312;44.048;2023-08-06T11:15:01;7.75;;;2.22;;
38111;SDS011;64011;56.312;44.048;2023-08-06T11:17:04;5.07;;;2.00;;
38111;SDS011;64011;56.312;44.048;2023-08-06T11:19:07;9.10;;;2.30;;
38111;SDS011;64011;56.312;44.048;2023-08-06T11:21:07;5.18;;;2.25;;
38111;SDS011;64011;56.312;44.048;2023-08-06T11:23:11;7.72;;;2.58;;
38111;SDS011;64011;56.312;44.048;2023-08-06T11:25:11;7.72;;;2.20;;
38111;SDS011;64011;56.312;44.048;2023-08-06T11:27:12;6.97;;;2.08;;
38111;SDS011;64011;56.312;44.048;2023-08-06T11:29:14;5.63;;;2.15;;
38111;SDS011;64011;56.312;44.048;2023-08-06T11:31:18;6.47;;;2.63;;
38111;SDS011;64011;56.312;44.048;2023-08-06T11:33:20;8.27;;;2.60;;
38111;SDS011;64011;56.312;44.048;2023-08-06T11:35:21;10.55;;;2.80;;
38111;SDS011;64011;56.312;44.048;2023-08-06T11:37:21;7.75;;;2.08;;
38111;SDS011;64011;56.312;44.048;2023-08-06T11:39:24;5.70;;;2.20;;
38111;SDS011;64011;56.312;44.048;2023-08-06T11:41:25;9.52;;;2.40;;
38111;SDS011;64011;56.312;44.048;2023-08-06T11:43:25;6.70;;;2.45;;
38111;SDS011;64011;56.312;44.048;2023-08-06T11:45:26;6.75;;;2.10;;
38111;SDS011;64011;56.312;44.048;2023-08-06T11:47:27;9.13;;;2.17;;
38111;SDS011;64011;56.312;44.048;2023-08-06T11:49:37;4.60;;;2.13;;
38111;SDS011;64011;56.312;44.048;2023-08-06T11:51:38;6.45;;;2.40;;
38111;SDS011;64011;56.312;44.048;2023-08-06T11:53:39;7.15;;;2.20;;
38111;SDS011;64011;56.312;44.048;2023-08-06T11:55:41;7.45;;;2.35;;